Mt Champion Express — A8QN4 — position and weather

sailwx.info

Track history (hours):
 
Tides and Currents Weather Stations Pressure Air Temp Water Temp Dewpoint Dewpoint Depression Visibility Wind Speed Wind Dir Waves Ship Positions

Mt Champion Express

Last reported at 2017-Aug-19 08:47 UTC. Time now 2017-Aug-20 21:11 UTC.
Position N 53°44' E 004°16'.

Length 192 m; draft 7 m.

Type: Tanker. MMSI: 636013968.

Date/timePositionNaut miles runAvg speedWind from/ knotsBaromVisibWave heightAir tempDewpointWater temp
2017-Aug-19 08:47N 53°44' E 004°16'2 7.2
2017-Aug-19 08:30N 53°42' E 004°13'4 7.2
2017-Aug-19 08:00N 53°40' E 004°08'5 7.3
2017-Aug-19 07:18N 53°37' E 004°02'2 7.2
2017-Aug-19 07:00N 53°36' E 003°59'4 7.3
2017-Aug-19 06:29N 53°34' E 003°54'4 7.3
2017-Aug-19 06:00N 53°32' E 003°49'4 7.1
2017-Aug-19 05:25N 53°28' E 003°44'82 7.1
2017-Aug-18 17:54N 52°07' E 003°37'0 0.0
2017-Aug-18 17:30N 52°07' E 003°37'0 0.0
2017-Aug-18 17:00N 52°07' E 003°37'0 0.0
2017-Aug-18 16:30N 52°07' E 003°37'0 0.0
2017-Aug-18 16:00N 52°07' E 003°37'3 6.2
2017-Aug-18 15:30N 52°06' E 003°41'5 9.7
2017-Aug-18 15:00N 52°04' E 003°49'4 8.2
2017-Aug-18 14:30N 52°03' E 003°55'1010.4
2017-Aug-18 13:30N 51°57' E 004°10'510.6
2017-Aug-18 13:01N 51°54' E 004°16'3 6.4
2017-Aug-18 12:31N 51°54' E 004°22'0 0.0
2017-Aug-18 12:00N 51°54' E 004°22'0 0.0
2017-Aug-18 11:30N 51°54' E 004°22'0 0.0
2017-Aug-18 11:00N 51°54' E 004°22'  
2017-Aug-15 09:18N 51°54' E 004°22'0 0.0
2017-Aug-15 08:59N 51°54' E 004°22'0 0.0
2017-Aug-15 08:30N 51°54' E 004°22'0 0.0
2017-Aug-15 08:00N 51°54' E 004°22'0 0.0
2017-Aug-15 07:23N 51°54' E 004°22'0 0.0
2017-Aug-15 07:00N 51°54' E 004°22'0 0.0
2017-Aug-15 06:30N 51°54' E 004°22'0 0.0
2017-Aug-15 06:00N 51°54' E 004°22'0 0.0
2017-Aug-15 05:30N 51°54' E 004°22'0 0.0
2017-Aug-15 05:00N 51°54' E 004°22'0 0.0
2017-Aug-15 04:30N 51°54' E 004°22'0 0.0
2017-Aug-15 04:00N 51°54' E 004°22'0 0.0
2017-Aug-15 03:30N 51°54' E 004°22'0 0.0
2017-Aug-15 03:00N 51°54' E 004°22'0 0.0
2017-Aug-15 02:30N 51°54' E 004°22'0 0.0
2017-Aug-15 02:00N 51°54' E 004°22'0 0.0
2017-Aug-15 01:30N 51°54' E 004°22'0 0.0
2017-Aug-15 01:00N 51°54' E 004°22'0 0.0
2017-Aug-15 00:30N 51°54' E 004°22'0 0.0
2017-Aug-15 00:00N 51°54' E 004°22'0 0.0
2017-Aug-14 23:30N 51°54' E 004°22'0 0.0
2017-Aug-14 23:00N 51°54' E 004°22'0 0.0
2017-Aug-14 22:29N 51°54' E 004°22'0 0.0
2017-Aug-14 22:00N 51°54' E 004°22'0 0.0
2017-Aug-14 21:30N 51°54' E 004°22'0 0.0
2017-Aug-14 21:00N 51°54' E 004°22'0 0.0
2017-Aug-14 20:30N 51°54' E 004°22'0 0.0
2017-Aug-14 20:00N 51°54' E 004°22'0 0.0
2017-Aug-14 19:30N 51°54' E 004°22'0 0.0
2017-Aug-14 19:00N 51°54' E 004°22'0 0.0
2017-Aug-14 18:30N 51°54' E 004°22'0 0.0
2017-Aug-14 18:00N 51°54' E 004°22'0 0.0
2017-Aug-14 17:30N 51°54' E 004°22'0 0.0
2017-Aug-14 17:00N 51°54' E 004°22'0 0.0
2017-Aug-14 16:29N 51°54' E 004°22'0 0.0
2017-Aug-14 16:00N 51°54' E 004°22'0 0.0
2017-Aug-14 15:29N 51°54' E 004°22'0 0.0
2017-Aug-14 15:00N 51°54' E 004°22'0 0.0
2017-Aug-14 14:30N 51°54' E 004°22'0 0.0
2017-Aug-14 14:00N 51°54' E 004°22'0 0.0
2017-Aug-14 13:30N 51°54' E 004°22'0 0.0
2017-Aug-14 13:00N 51°54' E 004°22'0 0.0
2017-Aug-14 12:30N 51°54' E 004°22'0 0.0
2017-Aug-14 11:59N 51°54' E 004°22'0 0.0
2017-Aug-14 11:30N 51°54' E 004°22'0 0.0
2017-Aug-14 11:00N 51°54' E 004°22'0 0.0
2017-Aug-14 10:30N 51°54' E 004°22'0 0.0
2017-Aug-14 10:00N 51°54' E 004°22'0 0.0
2017-Aug-14 09:30N 51°54' E 004°22'0 0.0
2017-Aug-14 09:00N 51°54' E 004°22'0 0.0
2017-Aug-14 08:30N 51°54' E 004°22'0 0.0
2017-Aug-14 08:00N 51°54' E 004°22'0 0.0
2017-Aug-14 07:30N 51°54' E 004°22'0 0.0
2017-Aug-14 07:00N 51°54' E 004°22'0 0.0
2017-Aug-14 06:30N 51°54' E 004°22'0 0.0
2017-Aug-14 06:00N 51°54' E 004°22'0 0.0
2017-Aug-14 05:30N 51°54' E 004°22'0 0.0
2017-Aug-14 05:00N 51°54' E 004°22'0 0.0
2017-Aug-14 04:30N 51°54' E 004°22'0 0.0
2017-Aug-14 04:00N 51°54' E 004°22'0 0.0
2017-Aug-14 03:30N 51°54' E 004°22'0 0.0
2017-Aug-14 03:00N 51°54' E 004°22'0 0.0
2017-Aug-14 02:30N 51°54' E 004°22'0 0.0
2017-Aug-14 02:00N 51°54' E 004°22'0 0.0
2017-Aug-14 01:30N 51°54' E 004°22'0 0.0
2017-Aug-14 00:59N 51°54' E 004°22'0 0.0
2017-Aug-14 00:30N 51°54' E 004°22'0 0.0
2017-Aug-14 00:00N 51°54' E 004°22'0 0.0
2017-Aug-13 23:30N 51°54' E 004°22'0 0.0
2017-Aug-13 23:00N 51°54' E 004°22'0 0.0
2017-Aug-13 22:30N 51°54' E 004°22'0 0.0
2017-Aug-13 22:00N 51°54' E 004°22'0 0.0
2017-Aug-13 21:29N 51°54' E 004°22'0 0.0
2017-Aug-13 21:00N 51°54' E 004°22'0 0.0
2017-Aug-13 20:30N 51°54' E 004°22'0 0.3
2017-Aug-13 20:01N 51°54' E 004°21'3 6.0
2017-Aug-13 19:30N 51°54' E 004°17'4 7.8
2017-Aug-13 19:00N 51°56' E 004°12'510.2
2017-Aug-13 18:30N 51°59' E 004°04'510.5
2017-Aug-13 18:00N 52°00' E 003°56'510.7
2017-Aug-13 17:30N 51°60' E 003°48'1731.5
2017-Aug-13 16:58N 51°55' E 003°20'0 0.0
2017-Aug-13 16:30N 51°55' E 003°20'1 2.2
2017-Aug-13 16:00N 51°55' E 003°19'3610.8
2017-Aug-13 12:41N 51°39' E 002°27'510.0
2017-Aug-13 12:13N 51°35' E 002°22'2 9.9
2017-Aug-13 12:00N 51°34' E 002°20'5 9.6
2017-Aug-13 11:29N 51°30' E 002°14'5 9.5
2017-Aug-13 11:00N 51°27' E 002°09'5 9.4
2017-Aug-13 10:30N 51°23' E 002°05'5 9.5
2017-Aug-13 10:00N 51°20' E 001°59'5 9.7
2017-Aug-13 09:30N 51°16' E 001°54'5 9.8
2017-Aug-13 09:00N 51°13' E 001°49'5 9.9
2017-Aug-13 08:30N 51°09' E 001°44'510.1
2017-Aug-13 08:00N 51°04' E 001°39'510.5
2017-Aug-13 07:30N 51°00' E 001°34'511.0
2017-Aug-13 07:00N 50°56' E 001°29'6110.9
2017-Aug-13 01:23N 50°21' E 000°10'513.2
2017-Aug-13 01:00N 50°19' E 000°02'713.6
2017-Aug-13 00:30N 50°18' W 000°08'2814.4
2017-Aug-12 22:32N 50°10' W 000°51'014.5
2017-Aug-12 22:30N 50°10' W 000°51'914.4
2017-Aug-12 21:54N 50°08' W 001°04'614.1
2017-Aug-12 21:29N 50°06' W 001°13'613.5
2017-Aug-12 21:00N 50°05' W 001°23'612.9
2017-Aug-12 20:31N 50°03' W 001°33'612.2
2017-Aug-12 20:00N 50°02' W 001°42'611.2
2017-Aug-12 19:31N 50°00' W 001°50'510.5
2017-Aug-12 19:01N 49°59' W 001°58'7 9.6
2017-Aug-12 18:18N 49°57' W 002°08'3 9.0
2017-Aug-12 18:00N 49°57' W 002°12'14 8.7
2017-Aug-12 16:23N 49°53' W 002°33'6 9.1
2017-Aug-12 15:43N 49°51' W 002°42'2 9.5
2017-Aug-12 15:30N 49°50' W 002°45'5 9.8
2017-Aug-12 15:00N 49°49' W 002°53'610.2
2017-Aug-12 14:22N 49°46' W 003°01'410.5
2017-Aug-12 14:00N 49°44' W 003°07'510.7
2017-Aug-12 13:30N 49°42' W 003°14'510.8
2017-Aug-12 13:00N 49°39' W 003°21'611.0
2017-Aug-12 12:29N 49°36' W 003°28'1311.3
2017-Aug-12 11:17N 49°29' W 003°46'611.7
2017-Aug-12 10:47N 49°26' W 003°54'311.7
2017-Aug-12 10:30N 49°24' W 003°58'612.1
2017-Aug-12 09:59N 49°21' W 004°07'612.2
2017-Aug-12 09:29N 49°18' W 004°15'712.5
2017-Aug-12 08:57N 49°14' W 004°24'612.7
2017-Aug-12 08:29N 49°11' W 004°31'3013.2
2017-Aug-12 06:13N 48°56' W 005°11'313.2
2017-Aug-12 06:00N 48°55' W 005°14'913.0
2017-Aug-12 05:20N 48°50' W 005°26'412.6
2017-Aug-12 04:59N 48°49' W 005°32'  
2017-Aug-09 19:25N 39°25' W 009°57'3 8.3
2017-Aug-09 19:00N 39°22' W 009°57'4 8.4
2017-Aug-09 18:30N 39°18' W 009°57'4 8.5
2017-Aug-09 18:01N 39°14' W 009°57'4 8.6
2017-Aug-09 17:31N 39°09' W 009°57'4 8.8
2017-Aug-09 17:01N 39°05' W 009°57'4 9.0
2017-Aug-09 16:31N 39°00' W 009°57'5 9.2
2017-Aug-09 16:01N 38°56' W 009°57'4 8.9
2017-Aug-09 15:31N 38°51' W 009°57'5 9.3
2017-Aug-09 15:00N 38°47' W 009°57'5 9.5
2017-Aug-09 14:30N 38°42' W 009°57'5 9.7
2017-Aug-09 14:00N 38°37' W 009°56'5 9.3
2017-Aug-09 13:30N 38°33' W 009°54'5 9.2
2017-Aug-09 13:01N 38°28' W 009°53'5 9.7
2017-Aug-09 12:30N 38°23' W 009°52'5 9.8
2017-Aug-09 12:00N 38°19' W 009°51'5 9.6
2017-Aug-09 11:31N 38°14' W 009°49'5 9.8
2017-Aug-09 11:01N 38°09' W 009°48'510.0
2017-Aug-09 10:30N 38°04' W 009°46'510.0
2017-Aug-09 10:00N 37°60' W 009°45'10 9.7
2017-Aug-09 09:01N 37°50' W 009°42'0 8.9
2017-Aug-09 09:00N 37°50' W 009°42'  
Track history (hours):
 
Tides and Currents Weather Stations Pressure Air Temp Water Temp Dewpoint Dewpoint Depression Visibility Wind Speed Wind Dir Waves Ship Positions

Mt Champion Express

Last reported at 2017-Aug-19 08:47 UTC. Time now 2017-Aug-20 21:11 UTC.
Position N 53°44' E 004°16'.

Length 192 m; draft 7 m.

Type: Tanker. MMSI: 636013968.

Date/timePositionNaut miles runAvg speedWind from/ knotsBaromVisibWave heightAir tempDewpointWater temp
2017-Aug-19 08:47N 53°44' E 004°16'2 7.2
2017-Aug-19 08:30N 53°42' E 004°13'4 7.2
2017-Aug-19 08:00N 53°40' E 004°08'5 7.3
2017-Aug-19 07:18N 53°37' E 004°02'2 7.2
2017-Aug-19 07:00N 53°36' E 003°59'4 7.3
2017-Aug-19 06:29N 53°34' E 003°54'4 7.3
2017-Aug-19 06:00N 53°32' E 003°49'4 7.1
2017-Aug-19 05:25N 53°28' E 003°44'82 7.1
2017-Aug-18 17:54N 52°07' E 003°37'0 0.0
2017-Aug-18 17:30N 52°07' E 003°37'0 0.0
2017-Aug-18 17:00N 52°07' E 003°37'0 0.0
2017-Aug-18 16:30N 52°07' E 003°37'0 0.0
2017-Aug-18 16:00N 52°07' E 003°37'3 6.2
2017-Aug-18 15:30N 52°06' E 003°41'5 9.7
2017-Aug-18 15:00N 52°04' E 003°49'4 8.2
2017-Aug-18 14:30N 52°03' E 003°55'1010.4
2017-Aug-18 13:30N 51°57' E 004°10'510.6
2017-Aug-18 13:01N 51°54' E 004°16'3 6.4
2017-Aug-18 12:31N 51°54' E 004°22'0 0.0
2017-Aug-18 12:00N 51°54' E 004°22'0 0.0
2017-Aug-18 11:30N 51°54' E 004°22'0 0.0
2017-Aug-18 11:00N 51°54' E 004°22'  
2017-Aug-15 09:18N 51°54' E 004°22'0 0.0
2017-Aug-15 08:59N 51°54' E 004°22'0 0.0
2017-Aug-15 08:30N 51°54' E 004°22'0 0.0
2017-Aug-15 08:00N 51°54' E 004°22'0 0.0
2017-Aug-15 07:23N 51°54' E 004°22'0 0.0
2017-Aug-15 07:00N 51°54' E 004°22'0 0.0
2017-Aug-15 06:30N 51°54' E 004°22'0 0.0
2017-Aug-15 06:00N 51°54' E 004°22'0 0.0
2017-Aug-15 05:30N 51°54' E 004°22'0 0.0
2017-Aug-15 05:00N 51°54' E 004°22'0 0.0
2017-Aug-15 04:30N 51°54' E 004°22'0 0.0
2017-Aug-15 04:00N 51°54' E 004°22'0 0.0
2017-Aug-15 03:30N 51°54' E 004°22'0 0.0
2017-Aug-15 03:00N 51°54' E 004°22'0 0.0
2017-Aug-15 02:30N 51°54' E 004°22'0 0.0
2017-Aug-15 02:00N 51°54' E 004°22'0 0.0
2017-Aug-15 01:30N 51°54' E 004°22'0 0.0
2017-Aug-15 01:00N 51°54' E 004°22'0 0.0
2017-Aug-15 00:30N 51°54' E 004°22'0 0.0
2017-Aug-15 00:00N 51°54' E 004°22'0 0.0
2017-Aug-14 23:30N 51°54' E 004°22'0 0.0
2017-Aug-14 23:00N 51°54' E 004°22'0 0.0
2017-Aug-14 22:29N 51°54' E 004°22'0 0.0
2017-Aug-14 22:00N 51°54' E 004°22'0 0.0
2017-Aug-14 21:30N 51°54' E 004°22'0 0.0
2017-Aug-14 21:00N 51°54' E 004°22'0 0.0
2017-Aug-14 20:30N 51°54' E 004°22'0 0.0
2017-Aug-14 20:00N 51°54' E 004°22'0 0.0
2017-Aug-14 19:30N 51°54' E 004°22'0 0.0
2017-Aug-14 19:00N 51°54' E 004°22'0 0.0
2017-Aug-14 18:30N 51°54' E 004°22'0 0.0
2017-Aug-14 18:00N 51°54' E 004°22'0 0.0
2017-Aug-14 17:30N 51°54' E 004°22'0 0.0
2017-Aug-14 17:00N 51°54' E 004°22'0 0.0
2017-Aug-14 16:29N 51°54' E 004°22'0 0.0
2017-Aug-14 16:00N 51°54' E 004°22'0 0.0
2017-Aug-14 15:29N 51°54' E 004°22'0 0.0
2017-Aug-14 15:00N 51°54' E 004°22'0 0.0
2017-Aug-14 14:30N 51°54' E 004°22'0 0.0
2017-Aug-14 14:00N 51°54' E 004°22'0 0.0
2017-Aug-14 13:30N 51°54' E 004°22'0 0.0
2017-Aug-14 13:00N 51°54' E 004°22'0 0.0
2017-Aug-14 12:30N 51°54' E 004°22'0 0.0
2017-Aug-14 11:59N 51°54' E 004°22'0 0.0
2017-Aug-14 11:30N 51°54' E 004°22'0 0.0
2017-Aug-14 11:00N 51°54' E 004°22'0 0.0
2017-Aug-14 10:30N 51°54' E 004°22'0 0.0
2017-Aug-14 10:00N 51°54' E 004°22'0 0.0
2017-Aug-14 09:30N 51°54' E 004°22'0 0.0
2017-Aug-14 09:00N 51°54' E 004°22'0 0.0
2017-Aug-14 08:30N 51°54' E 004°22'0 0.0
2017-Aug-14 08:00N 51°54' E 004°22'0 0.0
2017-Aug-14 07:30N 51°54' E 004°22'0 0.0
2017-Aug-14 07:00N 51°54' E 004°22'0 0.0
2017-Aug-14 06:30N 51°54' E 004°22'0 0.0
2017-Aug-14 06:00N 51°54' E 004°22'0 0.0
2017-Aug-14 05:30N 51°54' E 004°22'0 0.0
2017-Aug-14 05:00N 51°54' E 004°22'0 0.0
2017-Aug-14 04:30N 51°54' E 004°22'0 0.0
2017-Aug-14 04:00N 51°54' E 004°22'0 0.0
2017-Aug-14 03:30N 51°54' E 004°22'0 0.0
2017-Aug-14 03:00N 51°54' E 004°22'0 0.0
2017-Aug-14 02:30N 51°54' E 004°22'0 0.0
2017-Aug-14 02:00N 51°54' E 004°22'0 0.0
2017-Aug-14 01:30N 51°54' E 004°22'0 0.0
2017-Aug-14 00:59N 51°54' E 004°22'0 0.0
2017-Aug-14 00:30N 51°54' E 004°22'0 0.0
2017-Aug-14 00:00N 51°54' E 004°22'0 0.0
2017-Aug-13 23:30N 51°54' E 004°22'0 0.0
2017-Aug-13 23:00N 51°54' E 004°22'0 0.0
2017-Aug-13 22:30N 51°54' E 004°22'0 0.0
2017-Aug-13 22:00N 51°54' E 004°22'0 0.0
2017-Aug-13 21:29N 51°54' E 004°22'0 0.0
2017-Aug-13 21:00N 51°54' E 004°22'0 0.0
2017-Aug-13 20:30N 51°54' E 004°22'0 0.3
2017-Aug-13 20:01N 51°54' E 004°21'3 6.0
2017-Aug-13 19:30N 51°54' E 004°17'4 7.8
2017-Aug-13 19:00N 51°56' E 004°12'510.2
2017-Aug-13 18:30N 51°59' E 004°04'510.5
2017-Aug-13 18:00N 52°00' E 003°56'510.7
2017-Aug-13 17:30N 51°60' E 003°48'1731.5
2017-Aug-13 16:58N 51°55' E 003°20'0 0.0
2017-Aug-13 16:30N 51°55' E 003°20'1 2.2
2017-Aug-13 16:00N 51°55' E 003°19'3610.8
2017-Aug-13 12:41N 51°39' E 002°27'510.0
2017-Aug-13 12:13N 51°35' E 002°22'2 9.9
2017-Aug-13 12:00N 51°34' E 002°20'5 9.6
2017-Aug-13 11:29N 51°30' E 002°14'5 9.5
2017-Aug-13 11:00N 51°27' E 002°09'5 9.4
2017-Aug-13 10:30N 51°23' E 002°05'5 9.5
2017-Aug-13 10:00N 51°20' E 001°59'5 9.7
2017-Aug-13 09:30N 51°16' E 001°54'5 9.8
2017-Aug-13 09:00N 51°13' E 001°49'5 9.9
2017-Aug-13 08:30N 51°09' E 001°44'510.1
2017-Aug-13 08:00N 51°04' E 001°39'510.5
2017-Aug-13 07:30N 51°00' E 001°34'511.0
2017-Aug-13 07:00N 50°56' E 001°29'6110.9
2017-Aug-13 01:23N 50°21' E 000°10'513.2
2017-Aug-13 01:00N 50°19' E 000°02'713.6
2017-Aug-13 00:30N 50°18' W 000°08'2814.4
2017-Aug-12 22:32N 50°10' W 000°51'014.5
2017-Aug-12 22:30N 50°10' W 000°51'914.4
2017-Aug-12 21:54N 50°08' W 001°04'614.1
2017-Aug-12 21:29N 50°06' W 001°13'613.5
2017-Aug-12 21:00N 50°05' W 001°23'612.9
2017-Aug-12 20:31N 50°03' W 001°33'612.2
2017-Aug-12 20:00N 50°02' W 001°42'611.2
2017-Aug-12 19:31N 50°00' W 001°50'510.5
2017-Aug-12 19:01N 49°59' W 001°58'7 9.6
2017-Aug-12 18:18N 49°57' W 002°08'3 9.0
2017-Aug-12 18:00N 49°57' W 002°12'14 8.7
2017-Aug-12 16:23N 49°53' W 002°33'6 9.1
2017-Aug-12 15:43N 49°51' W 002°42'2 9.5
2017-Aug-12 15:30N 49°50' W 002°45'5 9.8
2017-Aug-12 15:00N 49°49' W 002°53'610.2
2017-Aug-12 14:22N 49°46' W 003°01'410.5
2017-Aug-12 14:00N 49°44' W 003°07'510.7
2017-Aug-12 13:30N 49°42' W 003°14'510.8
2017-Aug-12 13:00N 49°39' W 003°21'611.0
2017-Aug-12 12:29N 49°36' W 003°28'1311.3
2017-Aug-12 11:17N 49°29' W 003°46'611.7
2017-Aug-12 10:47N 49°26' W 003°54'311.7
2017-Aug-12 10:30N 49°24' W 003°58'612.1
2017-Aug-12 09:59N 49°21' W 004°07'612.2
2017-Aug-12 09:29N 49°18' W 004°15'712.5
2017-Aug-12 08:57N 49°14' W 004°24'612.7
2017-Aug-12 08:29N 49°11' W 004°31'3013.2
2017-Aug-12 06:13N 48°56' W 005°11'313.2
2017-Aug-12 06:00N 48°55' W 005°14'913.0
2017-Aug-12 05:20N 48°50' W 005°26'412.6
2017-Aug-12 04:59N 48°49' W 005°32'  
2017-Aug-09 19:25N 39°25' W 009°57'3 8.3
2017-Aug-09 19:00N 39°22' W 009°57'4 8.4
2017-Aug-09 18:30N 39°18' W 009°57'4 8.5
2017-Aug-09 18:01N 39°14' W 009°57'4 8.6
2017-Aug-09 17:31N 39°09' W 009°57'4 8.8
2017-Aug-09 17:01N 39°05' W 009°57'4 9.0
2017-Aug-09 16:31N 39°00' W 009°57'5 9.2
2017-Aug-09 16:01N 38°56' W 009°57'4 8.9
2017-Aug-09 15:31N 38°51' W 009°57'5 9.3
2017-Aug-09 15:00N 38°47' W 009°57'5 9.5
2017-Aug-09 14:30N 38°42' W 009°57'5 9.7
2017-Aug-09 14:00N 38°37' W 009°56'5 9.3
2017-Aug-09 13:30N 38°33' W 009°54'5 9.2
2017-Aug-09 13:01N 38°28' W 009°53'5 9.7
2017-Aug-09 12:30N 38°23' W 009°52'5 9.8
2017-Aug-09 12:00N 38°19' W 009°51'5 9.6
2017-Aug-09 11:31N 38°14' W 009°49'5 9.8
2017-Aug-09 11:01N 38°09' W 009°48'510.0
2017-Aug-09 10:30N 38°04' W 009°46'510.0
2017-Aug-09 10:00N 37°60' W 009°45'10 9.7
2017-Aug-09 09:01N 37°50' W 009°42'0 8.9
2017-Aug-09 09:00N 37°50' W 009°42'  

Dump ship's entire track history